Airfield :
LOGIN :

Register | Disclaimer

   EN    FR    IT 

 










Legend :    VFR   Marginal VFR   IFR   Intensive IFR   Very Intensive IFR
Visi :
Ceiling :
>= 8 km
>= 3000ft
5 to 8 km
1000 to 3000 ft
1500m to 5 km
500 to 1000 ft
800 to 1500m
200 to 500 ft
< 800m
< 200 ft
Symbols :   Thunderstorms  Fog  Heavy snow  Heavy precipitations  Wind > 20 kt
SIGMETs :     Misc.  Thunderstorms  Icing  Turbulence  Mountain Waves  Volcanic Ashes






- Airport Elevation : 461 ft
- IATA code : WIE


ETOU - Wiesbaden Army

CURRENT METAR :
  • 080456Z AUTO 03003KT 9999 CLR 12/05 A3031 RMK AO2 SLP264 T01170053 $

EXPIRED METARs :
  • 080356Z AUTO 35003KT 9999 CLR 13/06 A3031 RMK AO2 SLP264 T01320056 $
  • 080256Z AUTO 00000KT 9999 CLR 12/06 A3032 RMK AO2 SLP268 T01200056 57010 $

TAF TAF ETOU
Valid from the 08 at 04:00 until the 09 at 10:00 UTC


080400Z 0804/0910 VRB06KT 9999 SKC QNH3023INS
TEMPO 0804/0808 8000 BR TX26/0815Z TN13/0805Z



MET'MAP, your aeronautical weather chart ! - Copyright ORBIFLY December 2007 - Disclaimer

ORBIFLY MET'MAP TEAM :

Programming & Development : Alexandra Zaïnal
Concept & original design : Baudouin d'Aumeries
Assistance for programming : Marc-Olivier Méhu
Technical & hardware support : Manuel Goepfert

Contact : metmap@orbifly.com




SOURCES & CREDITS :

   NOAA